createdAt,value
2023-03-19T00:00:31.286Z,100177.44
2023-03-19T00:02:59.120Z,100175.34
2023-03-19T00:05:26.574Z,100174.06
2023-03-19T00:07:53.921Z,100178.41
2023-03-19T00:10:21.765Z,100167.31
2023-03-19T00:12:49.136Z,100163.25
2023-03-19T00:15:16.604Z,100162.78
2023-03-19T00:17:44.298Z,100167.00
2023-03-19T00:20:12.441Z,100170.44
2023-03-19T00:22:40.205Z,100162.50
2023-03-19T00:25:08.723Z,100157.62
2023-03-19T00:27:37.533Z,100159.16
2023-03-19T00:30:06.268Z,100155.31
2023-03-19T00:32:35.726Z,100160.31
2023-03-19T00:35:04.091Z,100151.16
2023-03-19T00:37:31.448Z,100161.59
2023-03-19T00:39:59.739Z,100155.03
2023-03-19T00:42:27.122Z,100151.00
2023-03-19T00:44:54.488Z,100152.44
2023-03-19T00:47:22.542Z,100148.87
2023-03-19T00:49:49.899Z,100151.25
2023-03-19T00:52:17.236Z,100134.28
2023-03-19T00:54:44.845Z,100135.28
2023-03-19T00:57:12.187Z,100145.72
2023-03-19T00:59:39.573Z,100138.19
2023-03-19T01:02:07.231Z,100152.84
2023-03-19T01:04:34.676Z,100149.97
2023-03-19T01:07:02.098Z,100134.84
2023-03-19T01:09:29.759Z,100137.44
2023-03-19T01:11:57.173Z,100150.03
2023-03-19T01:14:24.730Z,100149.72
2023-03-19T01:16:52.392Z,100138.63
2023-03-19T01:19:20.154Z,100145.72
2023-03-19T01:21:49.496Z,100143.88
2023-03-19T01:24:17.473Z,100148.84
2023-03-19T01:26:45.717Z,100140.69
2023-03-19T01:29:13.876Z,100145.22
2023-03-19T01:31:41.521Z,100150.59
2023-03-19T01:34:09.031Z,100147.16
2023-03-19T01:36:36.709Z,100152.72
2023-03-19T01:39:04.425Z,100158.44
2023-03-19T01:41:32.104Z,100153.81
2023-03-19T01:43:59.596Z,100144.41
2023-03-19T01:46:32.610Z,100142.00
2023-03-19T01:49:03.409Z,100150.91
2023-03-19T01:51:34.834Z,100154.38
2023-03-19T01:54:07.739Z,100162.31
2023-03-19T01:56:37.071Z,100155.91
2023-03-19T01:59:12.302Z,100162.50
2023-03-19T02:01:46.496Z,100158.44
2023-03-19T02:04:14.207Z,100154.81
2023-03-19T02:06:42.916Z,100157.06
2023-03-19T02:09:10.482Z,100152.31
2023-03-19T02:11:38.117Z,100146.47
2023-03-19T02:14:05.577Z,100141.47
2023-03-19T02:16:33.304Z,100146.19
2023-03-19T02:19:01.477Z,100136.44
2023-03-19T02:21:28.878Z,100147.84
2023-03-19T02:24:03.702Z,100153.84
2023-03-19T02:26:32.974Z,100144.38
2023-03-19T02:29:00.962Z,100142.31
2023-03-19T02:31:28.840Z,100135.78
2023-03-19T02:34:21.377Z,100123.91
2023-03-19T02:36:55.860Z,100126.97
2023-03-19T02:39:29.532Z,100122.00
2023-03-19T02:41:57.177Z,100121.00
2023-03-19T02:44:25.051Z,100112.13
2023-03-19T02:46:52.677Z,100122.69
2023-03-19T02:49:20.436Z,100117.69
2023-03-19T02:51:47.793Z,100119.38
2023-03-19T02:54:15.340Z,100128.34
2023-03-19T02:56:42.969Z,100131.87
2023-03-19T02:59:10.372Z,100121.44
2023-03-19T03:01:37.809Z,100124.09
2023-03-19T03:04:05.839Z,100129.81
2023-03-19T03:06:33.162Z,100124.06
2023-03-19T03:09:02.204Z,100123.97
2023-03-19T03:11:29.835Z,100124.22
2023-03-19T03:13:57.730Z,100127.56
2023-03-19T03:16:25.478Z,100128.16
2023-03-19T03:18:53.194Z,100130.34
2023-03-19T03:21:21.567Z,100137.56
2023-03-19T03:23:49.010Z,100128.25
2023-03-19T03:26:16.638Z,100131.19
2023-03-19T03:28:44.169Z,100123.97
2023-03-19T03:31:12.064Z,100129.50
2023-03-19T03:33:40.702Z,100133.53
2023-03-19T03:36:08.487Z,100134.53
2023-03-19T03:38:36.067Z,100137.03
2023-03-19T03:41:03.717Z,100136.47
2023-03-19T03:43:31.205Z,100128.94
2023-03-19T03:45:58.918Z,100131.06
2023-03-19T03:48:27.025Z,100127.69
2023-03-19T03:50:54.457Z,100129.22
2023-03-19T03:53:22.276Z,100132.97
2023-03-19T03:55:50.001Z,100138.56
2023-03-19T03:58:19.267Z,100136.63
2023-03-19T04:00:47.848Z,100131.19
2023-03-19T04:03:15.530Z,100129.81
2023-03-19T04:05:44.413Z,100130.91
2023-03-19T04:08:12.252Z,100143.03
2023-03-19T04:10:42.400Z,100142.19
2023-03-19T04:13:10.442Z,100140.91
2023-03-19T04:15:38.612Z,100132.47
2023-03-19T04:18:06.302Z,100134.16
2023-03-19T04:20:33.881Z,100120.66
2023-03-19T04:23:02.134Z,100113.12
2023-03-19T04:25:30.131Z,100114.22
2023-03-19T04:27:58.254Z,100110.19
2023-03-19T04:30:26.316Z,100103.81
2023-03-19T04:32:53.981Z,100109.62
2023-03-19T04:35:21.575Z,100119.56
2023-03-19T04:37:49.020Z,100109.19
2023-03-19T04:40:18.416Z,100111.97
2023-03-19T04:42:46.284Z,100117.00
2023-03-19T04:45:14.164Z,100115.47
2023-03-19T04:47:42.591Z,100123.81
2023-03-19T04:50:10.479Z,100121.31
2023-03-19T04:52:37.929Z,100131.72
2023-03-19T04:55:06.490Z,100130.34
2023-03-19T04:57:36.848Z,100131.75
2023-03-19T05:00:04.635Z,100133.84
2023-03-19T05:02:33.987Z,100126.47
2023-03-19T05:05:01.855Z,100130.62
2023-03-19T05:07:29.740Z,100128.09
2023-03-19T05:09:58.231Z,100140.06
2023-03-19T05:12:26.015Z,100132.84
2023-03-19T05:14:54.772Z,100147.38
2023-03-19T05:17:22.653Z,100137.69
2023-03-19T05:19:50.247Z,100148.94
2023-03-19T05:22:18.090Z,100144.09
2023-03-19T05:24:46.346Z,100143.16
2023-03-19T05:27:13.959Z,100139.66
2023-03-19T05:29:42.563Z,100143.72
2023-03-19T05:32:11.133Z,100147.88
2023-03-19T05:34:39.031Z,100152.63
2023-03-19T05:37:06.742Z,100150.66
2023-03-19T05:39:35.450Z,100150.38
2023-03-19T05:42:03.118Z,100148.84
2023-03-19T05:44:30.540Z,100145.31
2023-03-19T05:46:58.356Z,100143.34
2023-03-19T05:49:26.812Z,100138.94
2023-03-19T05:51:54.238Z,100134.31
2023-03-19T05:54:21.927Z,100140.00
2023-03-19T05:56:49.471Z,100146.16
2023-03-19T05:59:17.420Z,100147.78
2023-03-19T06:01:46.397Z,100147.22
2023-03-19T06:04:14.276Z,100144.47
2023-03-19T06:06:42.284Z,100135.81
2023-03-19T06:09:09.709Z,100147.94
2023-03-19T06:11:39.570Z,100150.50
2023-03-19T06:14:08.440Z,100160.09
2023-03-19T06:16:37.501Z,100156.19
2023-03-19T06:19:05.894Z,100151.66
2023-03-19T06:21:33.270Z,100160.38
2023-03-19T06:24:01.407Z,100165.75
2023-03-19T06:26:29.220Z,100170.38
2023-03-19T06:28:57.551Z,100166.47
2023-03-19T06:31:25.851Z,100167.38
2023-03-19T06:33:55.145Z,100179.72
2023-03-19T06:36:22.765Z,100186.66
2023-03-19T06:38:50.640Z,100169.56
2023-03-19T06:41:18.025Z,100182.03
2023-03-19T06:43:46.299Z,100182.06
2023-03-19T06:46:13.977Z,100176.78
2023-03-19T06:48:41.358Z,100180.50
2023-03-19T06:51:08.686Z,100193.44
2023-03-19T06:53:36.348Z,100171.41
2023-03-19T06:56:04.172Z,100177.50
2023-03-19T06:58:31.572Z,100178.41
2023-03-19T07:00:59.792Z,100177.75
2023-03-19T07:03:27.169Z,100180.34
2023-03-19T07:05:54.617Z,100169.22
2023-03-19T07:08:22.301Z,100171.31
2023-03-19T07:10:49.642Z,100168.44
2023-03-19T07:13:17.058Z,100171.97
2023-03-19T07:15:44.712Z,100165.13
2023-03-19T07:18:12.339Z,100164.66
2023-03-19T07:20:39.678Z,100162.69
2023-03-19T07:23:07.300Z,100167.22
2023-03-19T07:25:34.696Z,100170.28
2023-03-19T07:28:02.066Z,100172.59
2023-03-19T07:30:29.737Z,100167.09
2023-03-19T07:32:57.117Z,100178.34
2023-03-19T07:35:24.548Z,100175.28
2023-03-19T07:37:52.189Z,100181.00
2023-03-19T07:40:19.622Z,100169.50
2023-03-19T07:42:47.031Z,100166.66
2023-03-19T07:45:14.659Z,100168.91
2023-03-19T07:47:42.047Z,100164.50
2023-03-19T07:50:09.907Z,100162.03
2023-03-19T07:52:37.545Z,100157.41
2023-03-19T07:55:05.378Z,100156.34
2023-03-19T07:57:33.059Z,100151.34
2023-03-19T08:00:00.678Z,100165.19
2023-03-19T08:02:28.080Z,100157.22
2023-03-19T08:04:56.023Z,100145.47
2023-03-19T08:07:23.596Z,100160.47
2023-03-19T08:09:50.995Z,100158.78
2023-03-19T08:12:18.616Z,100156.44
2023-03-19T08:14:46.066Z,100159.81
2023-03-19T08:17:13.623Z,100156.88
2023-03-19T08:19:41.325Z,100149.31
2023-03-19T08:22:08.790Z,100151.56
2023-03-19T08:24:36.382Z,100142.00
2023-03-19T08:27:04.016Z,100141.59
2023-03-19T08:29:31.438Z,100148.47
2023-03-19T08:32:00.671Z,100146.66
2023-03-19T08:34:28.345Z,100148.97
2023-03-19T08:36:55.773Z,100142.75
2023-03-19T08:39:24.043Z,100149.78
2023-03-19T08:41:51.673Z,100148.25
2023-03-19T08:44:19.112Z,100139.66
2023-03-19T08:46:46.459Z,100132.97
2023-03-19T08:49:14.090Z,100134.12
2023-03-19T08:51:41.544Z,100143.84
2023-03-19T08:54:11.234Z,100140.78
2023-03-19T08:56:38.972Z,100135.16
2023-03-19T08:59:06.358Z,100125.88
2023-03-19T09:01:33.712Z,100138.41
2023-03-19T09:04:02.197Z,100131.97
2023-03-19T09:06:30.147Z,100132.00
2023-03-19T09:08:57.539Z,100139.22
2023-03-19T09:11:25.433Z,100128.37
2023-03-19T09:13:52.855Z,100124.03
2023-03-19T09:16:20.262Z,100126.50
2023-03-19T09:18:47.873Z,100129.66
2023-03-19T09:21:15.241Z,100124.97
2023-03-19T09:23:42.623Z,100124.13
2023-03-19T09:26:10.411Z,100125.50
2023-03-19T09:28:38.132Z,100115.00
2023-03-19T09:31:09.480Z,100113.88
2023-03-19T09:33:37.172Z,100118.00
2023-03-19T09:36:04.772Z,100111.22
2023-03-19T09:38:32.149Z,100117.97
2023-03-19T09:41:04.661Z,100111.53
2023-03-19T09:43:35.980Z,100104.03
2023-03-19T09:46:06.162Z,100086.84
2023-03-19T09:48:43.290Z,100096.91
2023-03-19T09:51:15.540Z,100099.56
2023-03-19T09:54:15.873Z,100097.25
2023-03-19T09:56:43.586Z,100099.09
2023-03-19T09:59:10.977Z,100095.81
2023-03-19T10:01:38.573Z,100096.81
2023-03-19T10:04:38.876Z,100094.22
2023-03-19T10:07:32.649Z,100097.38
2023-03-19T10:10:33.444Z,100091.94
2023-03-19T10:13:12.383Z,100091.63
2023-03-19T10:15:39.993Z,100079.59
2023-03-19T10:18:09.938Z,100089.50
2023-03-19T10:21:14.627Z,100081.53
2023-03-19T10:23:45.951Z,100066.97
2023-03-19T10:26:15.796Z,100081.44
2023-03-19T10:28:45.273Z,100060.13
2023-03-19T10:31:28.378Z,100064.53
2023-03-19T10:34:19.991Z,100056.00
2023-03-19T10:36:47.360Z,100055.13
2023-03-19T10:39:18.795Z,100048.06
2023-03-19T10:41:52.089Z,100047.09
2023-03-19T10:44:26.263Z,100052.53
2023-03-19T10:46:53.625Z,100042.97
2023-03-19T10:49:21.252Z,100061.63
2023-03-19T10:51:48.737Z,100058.94
2023-03-19T10:54:24.918Z,100031.78
2023-03-19T10:56:54.908Z,100046.22
2023-03-19T10:59:27.064Z,100041.00
2023-03-19T11:01:58.713Z,100036.87
2023-03-19T11:04:29.638Z,100023.59
2023-03-19T11:07:03.037Z,100023.63
2023-03-19T11:09:56.641Z,100011.13
2023-03-19T11:12:34.872Z,100016.41
2023-03-19T11:15:07.506Z,100006.75
2023-03-19T11:17:46.384Z,99996.53
2023-03-19T11:20:36.399Z,99999.75
2023-03-19T11:23:09.268Z,99997.78
2023-03-19T11:25:38.840Z,99996.06
2023-03-19T11:28:14.525Z,99988.66
2023-03-19T11:31:09.182Z,99984.25
2023-03-19T11:33:58.496Z,99977.16
2023-03-19T11:36:41.948Z,99985.56
2023-03-19T11:39:15.701Z,99984.97
2023-03-19T11:41:47.145Z,99976.78
2023-03-19T11:44:29.175Z,99985.56
2023-03-19T11:47:27.542Z,99982.50
2023-03-19T11:50:18.218Z,99972.88
2023-03-19T11:52:54.031Z,99968.97
2023-03-19T11:55:27.336Z,99968.28
2023-03-19T11:58:16.177Z,99957.34
2023-03-19T12:00:47.396Z,99954.63
2023-03-19T12:03:35.143Z,99955.09
2023-03-19T12:06:30.658Z,99949.22
2023-03-19T12:09:03.502Z,99950.72
2023-03-19T12:11:53.467Z,99950.97
2023-03-19T12:14:27.391Z,99932.37
2023-03-19T12:17:24.201Z,99925.22
2023-03-19T12:20:16.526Z,99920.69
2023-03-19T12:22:56.882Z,99917.91
2023-03-19T12:25:39.668Z,99912.88
2023-03-19T12:28:12.846Z,99916.22
2023-03-19T12:30:46.521Z,99926.81
2023-03-19T12:33:22.140Z,99913.44
2023-03-19T12:35:50.442Z,99912.78
2023-03-19T12:38:21.714Z,99900.56
2023-03-19T12:41:11.127Z,99907.16
2023-03-19T12:44:04.247Z,99888.94
2023-03-19T12:46:33.939Z,99889.41
2023-03-19T12:49:10.416Z,99887.03
2023-03-19T12:51:42.432Z,99870.97
2023-03-19T12:54:21.431Z,99875.72
2023-03-19T12:56:53.583Z,99865.81
2023-03-19T12:59:43.592Z,99868.06
2023-03-19T13:02:29.851Z,99862.94
2023-03-19T13:05:01.712Z,99863.63
2023-03-19T13:07:34.276Z,99866.81
2023-03-19T13:10:09.152Z,99853.59
2023-03-19T13:12:37.606Z,99857.63
2023-03-19T13:15:21.008Z,99857.94
2023-03-19T13:18:00.848Z,99856.13
2023-03-19T13:20:53.331Z,99854.44
2023-03-19T13:23:32.244Z,99850.66
2023-03-19T13:26:00.206Z,99847.84
2023-03-19T13:28:54.407Z,99850.22
2023-03-19T13:31:26.299Z,99848.78
2023-03-19T13:34:24.826Z,99838.53
2023-03-19T13:37:07.055Z,99837.50
2023-03-19T13:39:34.537Z,99827.25
2023-03-19T13:42:20.259Z,99835.09
2023-03-19T13:45:30.068Z,99832.25
2023-03-19T13:47:59.189Z,99829.81
2023-03-19T13:50:28.239Z,99819.72
2023-03-19T13:53:22.326Z,99826.56
2023-03-19T13:56:00.118Z,99820.25
2023-03-19T13:58:47.273Z,99813.13
2023-03-19T14:01:27.495Z,99813.16
2023-03-19T14:03:59.292Z,99806.66
2023-03-19T14:06:32.729Z,99793.84
2023-03-19T14:09:00.502Z,99798.59
2023-03-19T14:11:35.994Z,99797.59
2023-03-19T14:14:05.596Z,99796.75
2023-03-19T14:16:37.939Z,99792.22
2023-03-19T14:19:11.405Z,99797.16
2023-03-19T14:21:51.268Z,99803.94
2023-03-19T14:24:58.508Z,99797.50
2023-03-19T14:27:32.985Z,99797.56
2023-03-19T14:30:11.671Z,99793.78
2023-03-19T14:32:42.456Z,99804.66
2023-03-19T14:35:13.184Z,99783.59
2023-03-19T14:37:46.447Z,99794.63
2023-03-19T14:40:19.285Z,99799.47
2023-03-19T14:43:08.421Z,99795.09
2023-03-19T14:46:01.230Z,99792.56
2023-03-19T14:48:50.946Z,99796.53
2023-03-19T14:51:33.819Z,99792.75
2023-03-19T14:54:27.284Z,99783.94
2023-03-19T14:56:56.449Z,99792.00
2023-03-19T14:59:23.843Z,99790.59
2023-03-19T15:01:53.230Z,99791.75
2023-03-19T15:04:22.650Z,99790.91
2023-03-19T15:06:55.575Z,99786.00
2023-03-19T15:09:27.191Z,99792.47
2023-03-19T15:12:14.350Z,99783.91
2023-03-19T15:15:14.355Z,99789.78
2023-03-19T15:17:45.315Z,99791.84
2023-03-19T15:20:21.430Z,99788.81
2023-03-19T15:22:55.489Z,99789.47
2023-03-19T15:25:23.214Z,99786.78
2023-03-19T15:28:13.568Z,99786.38
2023-03-19T15:30:53.712Z,99797.09
2023-03-19T15:33:39.188Z,99790.09
2023-03-19T15:36:09.190Z,99793.03
2023-03-19T15:38:40.036Z,99798.59
2023-03-19T15:41:07.848Z,99790.16
2023-03-19T15:43:36.294Z,99801.09
2023-03-19T15:46:03.732Z,99795.72
2023-03-19T15:48:38.291Z,99793.88
2023-03-19T15:51:05.919Z,99805.00
2023-03-19T15:53:33.768Z,99795.13
2023-03-19T15:56:02.420Z,99800.88
2023-03-19T15:58:31.737Z,99796.53
2023-03-19T16:00:59.801Z,99795.50
2023-03-19T16:03:37.747Z,99793.06
2023-03-19T16:06:06.614Z,99807.91
2023-03-19T16:08:34.273Z,99802.31
2023-03-19T16:11:26.333Z,99805.22
2023-03-19T16:14:10.726Z,99808.94
2023-03-19T16:16:39.502Z,99811.41
2023-03-19T16:19:34.461Z,99810.97
2023-03-19T16:22:03.239Z,99810.50
2023-03-19T16:24:34.155Z,99815.84
2023-03-19T16:27:03.846Z,99821.62
2023-03-19T16:29:43.878Z,99820.97
2023-03-19T16:32:20.533Z,99822.78
2023-03-19T16:34:50.957Z,99826.28
2023-03-19T16:37:33.138Z,99819.66
2023-03-19T16:40:02.561Z,99826.88
2023-03-19T16:42:30.866Z,99827.69
2023-03-19T16:44:58.328Z,99830.38
2023-03-19T16:47:25.998Z,99835.25
2023-03-19T16:49:53.350Z,99833.63
2023-03-19T16:52:22.297Z,99833.37
2023-03-19T16:54:50.059Z,99837.31
2023-03-19T16:57:17.544Z,99834.22
2023-03-19T16:59:45.309Z,99844.28
2023-03-19T17:02:13.477Z,99845.12
2023-03-19T17:04:40.930Z,99841.13
2023-03-19T17:07:08.559Z,99845.84
2023-03-19T17:09:36.287Z,99840.84
2023-03-19T17:12:04.167Z,99845.59
2023-03-19T17:14:31.527Z,99843.75
2023-03-19T17:16:59.153Z,99845.12
2023-03-19T17:19:28.860Z,99850.25
2023-03-19T17:21:57.330Z,99850.59
2023-03-19T17:24:29.528Z,99845.69
2023-03-19T17:26:57.877Z,99853.31
2023-03-19T17:29:26.186Z,99850.22
2023-03-19T17:31:53.979Z,99854.56
2023-03-19T17:34:23.343Z,99848.16
2023-03-19T17:37:01.089Z,99851.75
2023-03-19T17:39:32.028Z,99857.78
2023-03-19T17:41:59.736Z,99853.09
2023-03-19T17:44:27.946Z,99855.06
2023-03-19T17:46:55.573Z,99855.22
2023-03-19T17:49:29.059Z,99861.38
2023-03-19T17:51:56.476Z,99861.13
2023-03-19T17:54:26.791Z,99854.94
2023-03-19T17:56:54.795Z,99859.06
2023-03-19T17:59:22.898Z,99859.41
2023-03-19T18:01:50.674Z,99860.66
2023-03-19T18:04:20.466Z,99854.25
2023-03-19T18:06:53.981Z,99853.50
2023-03-19T18:09:23.532Z,99845.88
2023-03-19T18:11:50.933Z,99849.50
2023-03-19T18:14:18.329Z,99845.59
2023-03-19T18:16:46.394Z,99847.66
2023-03-19T18:19:28.261Z,99851.16
2023-03-19T18:21:55.916Z,99854.03
2023-03-19T18:24:23.300Z,99852.75
2023-03-19T18:26:50.669Z,99844.41
2023-03-19T18:29:18.342Z,99844.56
2023-03-19T18:31:45.914Z,99845.75
2023-03-19T18:34:13.846Z,99854.28
2023-03-19T18:36:41.505Z,99856.19
2023-03-19T18:39:15.565Z,99848.16
2023-03-19T18:41:43.411Z,99853.72
2023-03-19T18:44:12.297Z,99849.78
2023-03-19T18:46:39.887Z,99852.62
2023-03-19T18:49:20.451Z,99860.41
2023-03-19T18:52:01.040Z,99857.31
2023-03-19T18:54:31.185Z,99858.72
2023-03-19T18:56:59.950Z,99857.22
2023-03-19T18:59:30.339Z,99853.47
2023-03-19T19:02:03.311Z,99852.62
2023-03-19T19:04:31.500Z,99859.47
2023-03-19T19:06:59.838Z,99858.81
2023-03-19T19:09:27.588Z,99856.25
2023-03-19T19:11:57.428Z,99857.13
2023-03-19T19:14:25.274Z,99859.62
2023-03-19T19:16:52.745Z,99857.22
2023-03-19T19:19:23.624Z,99869.41
2023-03-19T19:21:51.510Z,99858.84
2023-03-19T19:24:18.895Z,99863.31
2023-03-19T19:26:47.215Z,99871.19
2023-03-19T19:29:23.535Z,99868.84
2023-03-19T19:31:50.955Z,99871.91
2023-03-19T19:34:18.598Z,99868.78
2023-03-19T19:36:46.069Z,99864.78
2023-03-19T19:39:13.433Z,99866.81
2023-03-19T19:41:43.555Z,99868.78
2023-03-19T19:44:18.378Z,99872.72
2023-03-19T19:46:46.224Z,99863.37
2023-03-19T19:49:16.629Z,99861.53
2023-03-19T19:51:43.986Z,99864.25
2023-03-19T19:54:11.615Z,99872.84
2023-03-19T19:56:39.267Z,99862.88
2023-03-19T19:59:06.920Z,99864.53
2023-03-19T20:01:34.609Z,99872.47
2023-03-19T20:04:03.970Z,99868.59
2023-03-19T20:06:31.892Z,99864.69
2023-03-19T20:08:59.513Z,99867.28
2023-03-19T20:11:27.178Z,99864.53
2023-03-19T20:13:55.537Z,99864.97
2023-03-19T20:16:24.966Z,99867.28
2023-03-19T20:18:54.747Z,99864.31
2023-03-19T20:21:22.695Z,99860.00
2023-03-19T20:23:53.038Z,99869.78
2023-03-19T20:26:22.162Z,99859.00
2023-03-19T20:28:49.555Z,99867.28
2023-03-19T20:31:26.025Z,99863.84
2023-03-19T20:33:53.668Z,99866.94
2023-03-19T20:36:21.049Z,99859.94
2023-03-19T20:38:48.470Z,99873.03
2023-03-19T20:41:20.195Z,99866.00
2023-03-19T20:43:47.642Z,99873.59
2023-03-19T20:46:15.244Z,99872.97
2023-03-19T20:48:42.909Z,99862.50
2023-03-19T20:51:10.599Z,99864.75
2023-03-19T20:53:37.983Z,99864.56
2023-03-19T20:56:10.404Z,99865.63
2023-03-19T20:58:37.749Z,99861.50
2023-03-19T21:01:05.608Z,99860.41
2023-03-19T21:03:33.666Z,99864.66
2023-03-19T21:06:02.557Z,99863.19
2023-03-19T21:08:37.378Z,99855.72
2023-03-19T21:11:05.447Z,99865.59
2023-03-19T21:13:32.859Z,99859.59
2023-03-19T21:16:00.366Z,99855.44
2023-03-19T21:18:28.027Z,99857.56
2023-03-19T21:20:55.801Z,99865.41
2023-03-19T21:23:31.705Z,99859.25
2023-03-19T21:25:59.492Z,99861.16
2023-03-19T21:28:31.736Z,99854.06
2023-03-19T21:30:59.367Z,99858.06
2023-03-19T21:33:28.454Z,99853.44
2023-03-19T21:35:56.423Z,99850.69
2023-03-19T21:38:24.172Z,99863.00
2023-03-19T21:40:52.413Z,99856.75
2023-03-19T21:43:43.536Z,99861.50
2023-03-19T21:46:23.771Z,99856.56
2023-03-19T21:48:53.332Z,99857.94
2023-03-19T21:51:21.142Z,99855.63
2023-03-19T21:53:48.667Z,99855.00
2023-03-19T21:56:33.386Z,99849.47
2023-03-19T21:59:02.535Z,99848.28
2023-03-19T22:01:29.962Z,99843.38
2023-03-19T22:03:57.845Z,99835.78
2023-03-19T22:06:25.649Z,99837.72
2023-03-19T22:08:56.252Z,99835.03
2023-03-19T22:11:31.503Z,99835.78
2023-03-19T22:14:04.657Z,99835.66
2023-03-19T22:16:32.358Z,99832.22
2023-03-19T22:18:59.787Z,99831.81
2023-03-19T22:21:29.969Z,99828.56
2023-03-19T22:23:57.618Z,99823.53
2023-03-19T22:26:35.778Z,99824.38
2023-03-19T22:29:25.281Z,99830.72
2023-03-19T22:31:53.049Z,99822.22
2023-03-19T22:34:22.987Z,99815.72
2023-03-19T22:36:50.505Z,99818.13
2023-03-19T22:39:17.851Z,99814.69
2023-03-19T22:41:46.425Z,99821.91
2023-03-19T22:44:24.541Z,99820.22
2023-03-19T22:46:52.516Z,99813.84
2023-03-19T22:49:19.886Z,99819.06
2023-03-19T22:51:47.454Z,99807.72
2023-03-19T22:54:15.122Z,99815.00
2023-03-19T22:56:42.482Z,99808.56
2023-03-19T22:59:09.900Z,99800.25
2023-03-19T23:01:41.857Z,99809.75
2023-03-19T23:04:25.909Z,99798.94
2023-03-19T23:06:54.265Z,99796.84
2023-03-19T23:09:26.137Z,99794.87
2023-03-19T23:11:53.946Z,99798.94
2023-03-19T23:14:29.522Z,99796.91
2023-03-19T23:17:00.794Z,99795.53
2023-03-19T23:19:30.075Z,99789.28
2023-03-19T23:21:58.691Z,99793.94
2023-03-19T23:24:26.560Z,99796.38
2023-03-19T23:26:54.516Z,99801.84
2023-03-19T23:29:24.551Z,99794.25
2023-03-19T23:31:51.992Z,99792.66
2023-03-19T23:34:19.389Z,99795.25
2023-03-19T23:36:47.376Z,99790.94
2023-03-19T23:39:15.237Z,99795.16
2023-03-19T23:41:49.971Z,99795.63
2023-03-19T23:44:17.761Z,99793.47
2023-03-19T23:46:46.033Z,99799.16
2023-03-19T23:49:20.644Z,99790.78
2023-03-19T23:51:48.261Z,99794.25
2023-03-19T23:54:31.280Z,99793.66
2023-03-19T23:56:59.960Z,99786.28
2023-03-19T23:59:27.575Z,99786.81
